createdAt,value
2023-03-27T00:02:11.730Z,99468.81
2023-03-27T00:04:41.136Z,99458.28
2023-03-27T00:07:09.268Z,99459.16
2023-03-27T00:09:37.270Z,99468.72
2023-03-27T00:12:04.969Z,99474.84
2023-03-27T00:14:32.893Z,99466.09
2023-03-27T00:17:00.454Z,99464.31
2023-03-27T00:19:27.878Z,99463.38
2023-03-27T00:21:56.207Z,99468.50
2023-03-27T00:24:23.854Z,99482.50
2023-03-27T00:26:52.145Z,99486.81
2023-03-27T00:29:19.450Z,99501.66
2023-03-27T00:31:47.035Z,99535.78
2023-03-27T00:34:14.416Z,99532.25
2023-03-27T00:36:43.773Z,99540.06
2023-03-27T00:39:11.269Z,99516.38
2023-03-27T00:41:38.617Z,99500.56
2023-03-27T00:44:27.421Z,99499.63
2023-03-27T00:46:57.162Z,99489.94
2023-03-27T00:49:29.797Z,99482.88
2023-03-27T00:51:59.101Z,99481.97
2023-03-27T00:54:30.355Z,99472.34
2023-03-27T00:57:10.837Z,99480.19
2023-03-27T00:59:42.118Z,99483.66
2023-03-27T01:02:10.183Z,99494.03
2023-03-27T01:04:38.989Z,99467.72
2023-03-27T01:07:07.536Z,99472.09
2023-03-27T01:09:34.946Z,99454.56
2023-03-27T01:12:23.786Z,99452.84
2023-03-27T01:15:21.758Z,99433.50
2023-03-27T01:17:52.340Z,99430.03
2023-03-27T01:21:13.712Z,99426.50
2023-03-27T01:24:21.023Z,99419.44
2023-03-27T01:27:16.226Z,99408.00
2023-03-27T01:30:10.386Z,99396.50
2023-03-27T01:32:56.750Z,99378.09
2023-03-27T01:35:42.410Z,99371.88
2023-03-27T01:38:30.714Z,99370.97
2023-03-27T01:41:27.264Z,99363.03
2023-03-27T01:44:07.103Z,99362.16
2023-03-27T01:47:08.229Z,99365.59
2023-03-27T01:49:41.707Z,99366.44
2023-03-27T01:52:15.576Z,99360.25
2023-03-27T01:54:49.862Z,99361.09
2023-03-27T01:57:24.908Z,99366.28
2023-03-27T02:00:18.726Z,99343.47
2023-03-27T02:03:00.345Z,99303.19
2023-03-27T02:05:40.650Z,99265.53
2023-03-27T02:08:40.555Z,99234.81
2023-03-27T02:11:08.082Z,99199.81
2023-03-27T02:13:56.624Z,99165.63
2023-03-27T02:16:28.882Z,99150.59
2023-03-27T02:19:03.117Z,99142.66
2023-03-27T02:21:33.445Z,99164.34
2023-03-27T02:24:02.457Z,99165.13
2023-03-27T02:26:33.645Z,99178.19
2023-03-27T02:29:24.608Z,99203.34
2023-03-27T02:32:00.188Z,99211.16
2023-03-27T02:34:57.057Z,99226.66
2023-03-27T02:37:55.256Z,99252.72
2023-03-27T02:40:43.084Z,99277.88
2023-03-27T02:43:16.373Z,99281.19
2023-03-27T02:46:21.730Z,99298.50
2023-03-27T02:49:03.632Z,99309.75
2023-03-27T02:52:08.025Z,99316.66
2023-03-27T02:54:51.072Z,99313.78
2023-03-27T02:57:26.577Z,99316.31
2023-03-27T02:59:57.957Z,99343.19
2023-03-27T03:02:30.564Z,99339.63
2023-03-27T03:05:06.157Z,99344.72
2023-03-27T03:07:34.916Z,99359.50
2023-03-27T03:10:02.407Z,99365.41
2023-03-27T03:12:29.692Z,99385.28
2023-03-27T03:14:57.029Z,99384.47
2023-03-27T03:17:24.416Z,99394.88
2023-03-27T03:19:51.946Z,99381.69
2023-03-27T03:22:19.290Z,99389.50
2023-03-27T03:24:46.581Z,99385.84
2023-03-27T03:27:14.373Z,99386.66
2023-03-27T03:29:41.781Z,99393.50
2023-03-27T03:32:09.092Z,99398.69
2023-03-27T03:34:36.587Z,99405.72
2023-03-27T03:37:03.864Z,99397.72
2023-03-27T03:39:31.343Z,99406.50
2023-03-27T03:41:58.653Z,99422.81
2023-03-27T03:44:25.985Z,99451.69
2023-03-27T03:46:53.285Z,99459.28
2023-03-27T03:49:20.755Z,99464.59
2023-03-27T03:51:48.423Z,99448.06
2023-03-27T03:54:32.948Z,99452.66
2023-03-27T03:57:00.320Z,99463.03
2023-03-27T03:59:27.734Z,99442.94
2023-03-27T04:01:55.115Z,99442.81
2023-03-27T04:04:22.493Z,99448.84
2023-03-27T04:06:49.855Z,99455.00
2023-03-27T04:09:16.929Z,99450.47
2023-03-27T04:11:44.303Z,99452.13
2023-03-27T04:14:11.624Z,99459.16
2023-03-27T04:16:38.954Z,99461.63
2023-03-27T04:19:07.114Z,99474.72
2023-03-27T04:21:34.510Z,99472.72
2023-03-27T04:24:03.042Z,99485.88
2023-03-27T04:26:30.993Z,99499.63
2023-03-27T04:28:58.410Z,99508.13
2023-03-27T04:31:26.251Z,99524.75
2023-03-27T04:33:53.618Z,99520.34
2023-03-27T04:36:21.042Z,99523.78
2023-03-27T04:38:48.470Z,99525.22
2023-03-27T04:41:15.446Z,99535.91
2023-03-27T04:43:42.939Z,99547.09
2023-03-27T04:46:10.449Z,99551.53
2023-03-27T04:48:39.087Z,99536.47
2023-03-27T04:51:08.343Z,99553.03
2023-03-27T04:53:37.710Z,99559.06
2023-03-27T04:56:06.448Z,99564.22
2023-03-27T04:58:36.707Z,99581.69
2023-03-27T05:01:05.683Z,99577.28
2023-03-27T05:03:34.834Z,99575.53
2023-03-27T05:06:04.350Z,99580.69
2023-03-27T05:08:32.924Z,99584.97
2023-03-27T05:11:00.400Z,99594.56
2023-03-27T05:13:28.938Z,99598.75
2023-03-27T05:15:59.320Z,99623.28
2023-03-27T05:18:27.598Z,99629.28
2023-03-27T05:20:55.287Z,99619.50
2023-03-27T05:23:22.935Z,99630.84
2023-03-27T05:25:59.375Z,99646.38
2023-03-27T05:28:28.177Z,99658.72
2023-03-27T05:30:57.104Z,99662.94
2023-03-27T05:33:24.479Z,99673.97
2023-03-27T05:35:52.566Z,99688.78
2023-03-27T05:38:20.411Z,99700.34
2023-03-27T05:40:47.872Z,99696.84
2023-03-27T05:43:15.568Z,99706.16
2023-03-27T05:45:43.025Z,99713.25
2023-03-27T05:48:10.642Z,99711.81
2023-03-27T05:50:37.638Z,99709.25
2023-03-27T05:53:10.060Z,99722.25
2023-03-27T05:55:38.352Z,99730.13
2023-03-27T05:58:10.191Z,99741.53
2023-03-27T06:00:38.789Z,99745.50
2023-03-27T06:03:07.034Z,99742.69
2023-03-27T06:05:34.692Z,99745.44
2023-03-27T06:08:02.294Z,99736.97
2023-03-27T06:10:30.625Z,99737.06
2023-03-27T06:13:08.883Z,99750.25
2023-03-27T06:15:39.383Z,99749.69
2023-03-27T06:18:06.985Z,99742.50
2023-03-27T06:20:35.608Z,99727.78
2023-03-27T06:23:06.268Z,99728.84
2023-03-27T06:25:35.209Z,99711.66
2023-03-27T06:28:04.863Z,99696.13
2023-03-27T06:30:32.262Z,99698.72
2023-03-27T06:33:00.930Z,99709.19
2023-03-27T06:35:31.039Z,99716.34
2023-03-27T06:38:02.991Z,99696.25
2023-03-27T06:40:32.191Z,99706.59
2023-03-27T06:43:02.729Z,99710.06
2023-03-27T06:45:45.561Z,99713.69
2023-03-27T06:48:20.397Z,99714.31
2023-03-27T06:50:51.426Z,99731.75
2023-03-27T06:53:27.396Z,99754.47
2023-03-27T06:55:56.867Z,99758.59
2023-03-27T06:58:24.709Z,99776.25
2023-03-27T07:00:52.216Z,99770.56
2023-03-27T07:03:21.803Z,99748.94
2023-03-27T07:05:49.740Z,99746.69
2023-03-27T07:08:23.271Z,99728.16
2023-03-27T07:11:07.897Z,99716.50
2023-03-27T07:13:39.110Z,99710.38
2023-03-27T07:16:07.125Z,99690.63
2023-03-27T07:18:34.539Z,99655.72
2023-03-27T07:21:01.924Z,99656.81
2023-03-27T07:23:29.297Z,99666.56
2023-03-27T07:26:01.420Z,99666.78
2023-03-27T07:28:29.081Z,99668.88
2023-03-27T07:30:56.670Z,99654.91
2023-03-27T07:33:24.319Z,99687.47
2023-03-27T07:35:51.934Z,99652.44
2023-03-27T07:38:19.254Z,99652.53
2023-03-27T07:40:46.783Z,99660.59
2023-03-27T07:43:14.248Z,99638.63
2023-03-27T07:45:50.631Z,99638.84
2023-03-27T07:48:19.488Z,99658.16
2023-03-27T07:50:47.856Z,99633.16
2023-03-27T07:53:32.676Z,99642.66
2023-03-27T07:56:01.478Z,99645.50
2023-03-27T07:58:29.023Z,99656.19
2023-03-27T08:01:02.220Z,99640.66
2023-03-27T08:03:31.062Z,99611.81
2023-03-27T08:06:01.222Z,99651.25
2023-03-27T08:08:28.808Z,99665.63
2023-03-27T08:10:57.161Z,99678.78
2023-03-27T08:13:25.193Z,99709.41
2023-03-27T08:15:52.972Z,99640.75
2023-03-27T08:18:20.430Z,99669.84
2023-03-27T08:20:48.465Z,99647.78
2023-03-27T08:23:16.399Z,99627.53
2023-03-27T08:25:43.788Z,99605.63
2023-03-27T08:28:11.571Z,99602.44
2023-03-27T08:30:38.919Z,99601.75
2023-03-27T08:33:09.920Z,99627.38
2023-03-27T08:35:37.348Z,99645.41
2023-03-27T08:38:07.431Z,99633.31
2023-03-27T08:40:48.135Z,99633.53
2023-03-27T08:43:26.375Z,99673.69
2023-03-27T08:46:06.446Z,99602.72
2023-03-27T08:49:19.031Z,99659.69
2023-03-27T08:52:04.283Z,99568.06
2023-03-27T08:54:37.340Z,99533.53
2023-03-27T08:57:21.417Z,99543.94
2023-03-27T08:59:49.249Z,99544.75
2023-03-27T09:02:48.490Z,99565.94
2023-03-27T09:05:56.770Z,99581.22
2023-03-27T09:09:04.143Z,99642.47
2023-03-27T09:11:32.223Z,99550.41
2023-03-27T09:14:07.747Z,99498.25
2023-03-27T09:16:48.775Z,99385.88
2023-03-27T09:19:47.596Z,99316.41
2023-03-27T09:22:23.838Z,99389.19
2023-03-27T09:24:55.127Z,99333.91
2023-03-27T09:27:32.850Z,99426.41
2023-03-27T09:30:15.496Z,99405.66
2023-03-27T09:32:43.873Z,99389.25
2023-03-27T09:35:15.619Z,99389.44
2023-03-27T09:37:43.184Z,99448.34
2023-03-27T09:40:30.784Z,99402.63
2023-03-27T09:43:08.674Z,99403.44
2023-03-27T09:45:40.858Z,99414.78
2023-03-27T09:48:27.679Z,99339.31
2023-03-27T09:50:55.459Z,99264.72
2023-03-27T09:53:24.102Z,99301.63
2023-03-27T09:56:04.855Z,99281.47
2023-03-27T09:58:40.918Z,99320.06
2023-03-27T10:01:16.565Z,99316.50
2023-03-27T10:03:52.117Z,99441.19
2023-03-27T10:06:48.233Z,99440.00
2023-03-27T10:09:34.994Z,99446.03
2023-03-27T10:12:08.159Z,99453.06
2023-03-27T10:14:52.385Z,99432.88
2023-03-27T10:17:37.445Z,99375.19
2023-03-27T10:20:17.600Z,99402.72
2023-03-27T10:22:56.795Z,99301.00
2023-03-27T10:25:34.571Z,99215.06
2023-03-27T10:28:30.708Z,99276.56
2023-03-27T10:31:05.812Z,99153.69
2023-03-27T10:33:37.045Z,99069.47
2023-03-27T10:36:08.143Z,99176.50
2023-03-27T10:38:38.618Z,99079.13
2023-03-27T10:41:28.572Z,99124.75
2023-03-27T10:43:57.491Z,99167.72
2023-03-27T10:46:29.204Z,99064.19
2023-03-27T10:48:56.891Z,99060.66
2023-03-27T10:51:45.578Z,98981.72
2023-03-27T10:54:35.121Z,99030.84
2023-03-27T10:57:17.007Z,99016.81
2023-03-27T10:59:55.905Z,98877.41
2023-03-27T11:02:40.867Z,98933.53
2023-03-27T11:05:26.783Z,99087.81
2023-03-27T11:07:55.983Z,99060.56
2023-03-27T11:10:29.477Z,99021.94
2023-03-27T11:13:23.356Z,99044.78
2023-03-27T11:16:03.963Z,98975.53
2023-03-27T11:18:40.526Z,98938.69
2023-03-27T11:21:35.088Z,99126.44
2023-03-27T11:24:04.183Z,99330.56
2023-03-27T11:26:51.593Z,99432.97
2023-03-27T11:29:29.653Z,99422.75
2023-03-27T11:32:06.283Z,99537.34
2023-03-27T11:34:57.830Z,99665.41
2023-03-27T11:37:34.502Z,99767.56
2023-03-27T11:40:27.164Z,99845.44
2023-03-27T11:42:54.737Z,99865.44
2023-03-27T11:45:25.137Z,99940.88
2023-03-27T11:48:37.609Z,100021.28
2023-03-27T11:51:29.840Z,99957.00
2023-03-27T11:54:20.484Z,100026.44
2023-03-27T11:56:56.383Z,99950.06
2023-03-27T11:59:59.822Z,99960.38
2023-03-27T12:02:36.429Z,100040.38
2023-03-27T12:05:25.253Z,99945.53
2023-03-27T12:08:12.030Z,99764.44
2023-03-27T12:10:43.777Z,99750.47
2023-03-27T12:13:38.608Z,99686.53
2023-03-27T12:16:30.325Z,99684.91
2023-03-27T12:19:38.511Z,99646.97
2023-03-27T12:22:24.007Z,99773.69
2023-03-27T12:24:59.455Z,99731.44
2023-03-27T12:27:54.478Z,99755.94
2023-03-27T12:30:45.918Z,99791.16
2023-03-27T12:33:43.091Z,99622.28
2023-03-27T12:36:20.819Z,99663.59
2023-03-27T12:38:49.079Z,99643.06
2023-03-27T12:41:29.347Z,99617.84
2023-03-27T12:44:06.868Z,99638.31
2023-03-27T12:46:40.853Z,99723.41
2023-03-27T12:49:08.751Z,99811.84
2023-03-27T12:51:48.353Z,99890.25
2023-03-27T12:54:39.216Z,99967.19
2023-03-27T12:57:15.010Z,99979.38
2023-03-27T12:59:56.125Z,100080.13
2023-03-27T13:02:39.450Z,100172.94
2023-03-27T13:05:37.441Z,100246.25
2023-03-27T13:08:13.465Z,100290.44
2023-03-27T13:11:18.560Z,100286.13
2023-03-27T13:13:49.270Z,100349.81
2023-03-27T13:16:35.661Z,100376.25
2023-03-27T13:19:20.571Z,100312.31
2023-03-27T13:22:05.182Z,100226.72
2023-03-27T13:25:14.648Z,100216.69
2023-03-27T13:27:47.968Z,100193.22
2023-03-27T13:30:41.888Z,100175.19
2023-03-27T13:33:29.069Z,100195.19
2023-03-27T13:36:02.797Z,100224.84
2023-03-27T13:38:55.021Z,100170.91
2023-03-27T13:41:46.651Z,100219.19
2023-03-27T13:44:34.209Z,100225.13
2023-03-27T13:47:16.154Z,100238.06
2023-03-27T13:50:39.163Z,99974.63
2023-03-27T13:53:37.844Z,100111.00
2023-03-27T13:56:25.929Z,100108.88
2023-03-27T13:59:29.789Z,100049.38
2023-03-27T14:02:16.509Z,100191.84
2023-03-27T14:05:22.968Z,100186.63
2023-03-27T14:08:26.556Z,99982.22
2023-03-27T14:11:41.965Z,99962.78
2023-03-27T14:14:41.515Z,100031.72
2023-03-27T14:17:47.528Z,99848.41
2023-03-27T14:20:26.051Z,99771.06
2023-03-27T14:23:07.406Z,99835.41
2023-03-27T14:25:38.413Z,99822.22
2023-03-27T14:28:10.322Z,99789.41
2023-03-27T14:30:48.416Z,99851.66
2023-03-27T14:33:20.575Z,99865.53
2023-03-27T14:35:56.740Z,99882.41
2023-03-27T14:38:33.308Z,99845.63
2023-03-27T14:41:04.387Z,99824.53
2023-03-27T14:43:32.268Z,99781.25
2023-03-27T14:46:04.405Z,99782.94
2023-03-27T14:48:37.318Z,99811.13
2023-03-27T14:51:17.474Z,99774.97
2023-03-27T14:53:49.765Z,99796.97
2023-03-27T14:56:37.410Z,99717.69
2023-03-27T14:59:11.974Z,99766.00
2023-03-27T15:01:40.152Z,99712.47
2023-03-27T15:04:11.420Z,99723.88
2023-03-27T15:06:39.536Z,99853.91
2023-03-27T15:09:19.306Z,99822.63
2023-03-27T15:11:55.895Z,99793.66
2023-03-27T15:14:29.179Z,99791.94
2023-03-27T15:17:19.328Z,99557.72
2023-03-27T15:19:56.140Z,99548.75
2023-03-27T15:22:37.822Z,99479.78
2023-03-27T15:25:07.305Z,99516.81
2023-03-27T15:27:40.183Z,99553.47
2023-03-27T15:30:30.717Z,99290.00
2023-03-27T15:33:06.056Z,99326.16
2023-03-27T15:35:39.098Z,99271.50
2023-03-27T15:38:13.046Z,99327.41
2023-03-27T15:40:43.408Z,99275.13
2023-03-27T15:43:13.618Z,99140.41
2023-03-27T15:45:44.208Z,99027.44
2023-03-27T15:48:21.295Z,98929.97
2023-03-27T15:51:04.161Z,98978.44
2023-03-27T15:53:43.251Z,98905.53
2023-03-27T15:56:38.894Z,98936.56
2023-03-27T15:59:09.830Z,98897.91
2023-03-27T16:01:44.167Z,98982.91
2023-03-27T16:04:15.995Z,98797.78
2023-03-27T16:06:47.340Z,98721.72
2023-03-27T16:09:23.358Z,98728.03
2023-03-27T16:11:54.246Z,98737.69
2023-03-27T16:14:33.088Z,98746.44
2023-03-27T16:17:28.537Z,98732.22
2023-03-27T16:20:08.177Z,98794.06
2023-03-27T16:22:38.113Z,98691.19
2023-03-27T16:25:12.210Z,98764.28
2023-03-27T16:28:13.572Z,98810.50
2023-03-27T16:30:42.037Z,98581.28
2023-03-27T16:33:20.032Z,98545.56
2023-03-27T16:35:50.417Z,98587.09
2023-03-27T16:38:18.623Z,98677.56
2023-03-27T16:40:46.200Z,98632.94
2023-03-27T16:43:15.196Z,98576.34
2023-03-27T16:45:45.193Z,98549.59
2023-03-27T16:48:15.594Z,98579.69
2023-03-27T16:50:43.440Z,98577.28
2023-03-27T16:53:11.414Z,98569.50
2023-03-27T16:55:38.910Z,98604.66
2023-03-27T16:58:06.370Z,98725.88
2023-03-27T17:00:33.775Z,98839.91
2023-03-27T17:03:01.126Z,98895.16
2023-03-27T17:05:33.955Z,99023.91
2023-03-27T17:08:02.252Z,99087.91
2023-03-27T17:10:31.094Z,99087.03
2023-03-27T17:12:58.487Z,99115.09
2023-03-27T17:15:25.940Z,99101.97
2023-03-27T17:17:53.322Z,99023.91
2023-03-27T17:20:20.706Z,99066.00
2023-03-27T17:22:48.078Z,99132.63
2023-03-27T17:25:15.659Z,99160.66
2023-03-27T17:27:43.203Z,99194.81
2023-03-27T17:30:11.192Z,99226.34
2023-03-27T17:32:38.747Z,99265.81
2023-03-27T17:35:06.483Z,99276.25
2023-03-27T17:37:35.812Z,99359.50
2023-03-27T17:40:06.496Z,99427.00
2023-03-27T17:42:33.846Z,99461.00
2023-03-27T17:45:01.284Z,99510.59
2023-03-27T17:47:28.695Z,99583.06
2023-03-27T17:49:56.003Z,99635.50
2023-03-27T17:52:23.704Z,99665.00
2023-03-27T17:54:51.473Z,99667.34
2023-03-27T17:57:18.839Z,99750.88
2023-03-27T17:59:46.507Z,99821.19
2023-03-27T18:02:21.730Z,99864.41
2023-03-27T18:04:52.304Z,99934.38
2023-03-27T18:07:21.341Z,99961.66
2023-03-27T18:09:49.455Z,100010.53
2023-03-27T18:12:17.519Z,100043.78
2023-03-27T18:14:45.210Z,100074.00
2023-03-27T18:17:13.883Z,100093.28
2023-03-27T18:19:41.503Z,100112.59
2023-03-27T18:22:08.839Z,100125.56
2023-03-27T18:24:36.165Z,100144.75
2023-03-27T18:27:03.482Z,100152.22
2023-03-27T18:29:31.043Z,100152.78
2023-03-27T18:31:59.320Z,100159.81
2023-03-27T18:34:26.855Z,100185.03
2023-03-27T18:36:54.530Z,100209.28
2023-03-27T18:39:22.259Z,100228.50
2023-03-27T18:41:49.636Z,100217.59
2023-03-27T18:44:18.245Z,100254.16
2023-03-27T18:46:45.625Z,100282.41
2023-03-27T18:49:23.700Z,100287.53
2023-03-27T18:51:51.890Z,100302.75
2023-03-27T18:54:19.278Z,100331.03
2023-03-27T18:56:47.551Z,100315.66
2023-03-27T18:59:15.616Z,100326.78
2023-03-27T19:01:44.287Z,100334.53
2023-03-27T19:04:13.605Z,100338.78
2023-03-27T19:06:42.480Z,100355.72
2023-03-27T19:09:09.789Z,100368.53
2023-03-27T19:11:38.299Z,100389.19
2023-03-27T19:14:05.728Z,100393.13
2023-03-27T19:16:33.785Z,100403.91
2023-03-27T19:19:02.737Z,100413.44
2023-03-27T19:21:30.331Z,100433.69
2023-03-27T19:23:57.716Z,100437.56
2023-03-27T19:26:24.845Z,100460.06
2023-03-27T19:28:52.880Z,100464.13
2023-03-27T19:31:20.454Z,100471.19
2023-03-27T19:33:47.522Z,100482.31
2023-03-27T19:36:15.858Z,100489.66
2023-03-27T19:38:43.220Z,100511.47
2023-03-27T19:41:11.398Z,100513.50
2023-03-27T19:43:38.785Z,100522.75
2023-03-27T19:46:15.860Z,100536.59
2023-03-27T19:48:45.677Z,100544.97
2023-03-27T19:51:13.152Z,100559.22
2023-03-27T19:53:41.890Z,100576.44
2023-03-27T19:56:09.391Z,100569.69
2023-03-27T19:58:36.693Z,100573.47
2023-03-27T20:01:04.717Z,100578.50
2023-03-27T20:03:33.292Z,100583.53
2023-03-27T20:06:07.079Z,100591.25
2023-03-27T20:08:38.214Z,100602.72
2023-03-27T20:11:07.302Z,100612.09
2023-03-27T20:13:42.562Z,100620.06
2023-03-27T20:16:16.963Z,100607.69
2023-03-27T20:18:44.383Z,100625.56
2023-03-27T20:21:15.898Z,100649.34
2023-03-27T20:23:43.558Z,100658.03
2023-03-27T20:26:10.960Z,100653.44
2023-03-27T20:28:38.600Z,100651.66
2023-03-27T20:31:06.667Z,100645.59
2023-03-27T20:33:33.898Z,100648.03
2023-03-27T20:36:01.463Z,100639.69
2023-03-27T20:38:31.589Z,100627.19
2023-03-27T20:41:03.899Z,100636.03
2023-03-27T20:43:35.508Z,100634.16
2023-03-27T20:46:04.578Z,100627.97
2023-03-27T20:48:54.103Z,100610.03
2023-03-27T20:51:24.398Z,100613.81
2023-03-27T20:53:56.691Z,100615.53
2023-03-27T20:56:24.549Z,100615.69
2023-03-27T20:58:51.972Z,100630.78
2023-03-27T21:01:19.815Z,100630.25
2023-03-27T21:03:49.692Z,100623.91
2023-03-27T21:06:20.631Z,100610.88
2023-03-27T21:08:48.114Z,100616.25
2023-03-27T21:11:15.736Z,100615.81
2023-03-27T21:13:43.156Z,100623.50
2023-03-27T21:16:10.536Z,100618.78
2023-03-27T21:18:37.946Z,100615.47
2023-03-27T21:21:05.887Z,100615.69
2023-03-27T21:23:34.652Z,100602.91
2023-03-27T21:26:02.300Z,100605.59
2023-03-27T21:28:29.791Z,100597.06
2023-03-27T21:30:57.026Z,100605.63
2023-03-27T21:33:24.463Z,100616.22
2023-03-27T21:35:52.002Z,100618.91
2023-03-27T21:38:19.597Z,100632.63
2023-03-27T21:40:47.488Z,100624.88
2023-03-27T21:43:14.828Z,100637.91
2023-03-27T21:45:42.520Z,100630.75
2023-03-27T21:48:10.782Z,100643.88
2023-03-27T21:50:38.554Z,100650.19
2023-03-27T21:53:06.036Z,100675.06
2023-03-27T21:55:34.435Z,100667.69
2023-03-27T21:58:01.926Z,100672.25
2023-03-27T22:00:28.992Z,100680.44
2023-03-27T22:02:57.235Z,100697.72
2023-03-27T22:05:24.724Z,100692.66
2023-03-27T22:07:52.160Z,100707.75
2023-03-27T22:10:19.615Z,100707.69
2023-03-27T22:12:47.057Z,100705.59
2023-03-27T22:15:14.460Z,100703.88
2023-03-27T22:17:42.246Z,100684.44
2023-03-27T22:20:09.956Z,100687.78
2023-03-27T22:22:37.477Z,100679.81
2023-03-27T22:25:05.259Z,100668.56
2023-03-27T22:27:32.725Z,100676.91
2023-03-27T22:30:00.098Z,100676.91
2023-03-27T22:32:27.489Z,100676.09
2023-03-27T22:34:54.561Z,100677.81
2023-03-27T22:37:24.710Z,100682.13
2023-03-27T22:39:52.499Z,100683.03
2023-03-27T22:42:19.852Z,100681.91
2023-03-27T22:44:47.232Z,100685.50
2023-03-27T22:47:14.693Z,100695.84
2023-03-27T22:49:42.122Z,100693.97
2023-03-27T22:52:09.540Z,100694.81
2023-03-27T22:54:36.967Z,100694.94
2023-03-27T22:57:04.149Z,100698.44
2023-03-27T22:59:31.553Z,100700.16
2023-03-27T23:01:58.819Z,100708.06
2023-03-27T23:04:26.390Z,100703.16
2023-03-27T23:06:53.806Z,100721.69
2023-03-27T23:09:21.234Z,100735.94
2023-03-27T23:11:48.702Z,100752.78
2023-03-27T23:14:16.356Z,100748.53
2023-03-27T23:16:43.714Z,100745.84
2023-03-27T23:19:11.237Z,100744.72
2023-03-27T23:21:38.602Z,100747.19
2023-03-27T23:24:06.188Z,100755.88
2023-03-27T23:26:33.541Z,100758.00
2023-03-27T23:29:00.910Z,100778.81
2023-03-27T23:31:28.317Z,100785.09
2023-03-27T23:33:55.869Z,100780.97
2023-03-27T23:36:25.115Z,100791.78
2023-03-27T23:38:53.582Z,100797.72
2023-03-27T23:41:21.084Z,100806.34
2023-03-27T23:43:49.044Z,100809.78
2023-03-27T23:46:16.862Z,100823.50
2023-03-27T23:48:44.888Z,100824.81
2023-03-27T23:51:14.643Z,100812.63
2023-03-27T23:53:42.365Z,100822.28
2023-03-27T23:56:10.033Z,100825.22
2023-03-27T23:58:37.627Z,100831.97
